Jacksonville, FL (32257)

10:16 PM EDT on July 27, 2016 (GMT -0400)
| | Change Station

Elev -9999 ft 0.00 °N, 0.00 °E | Updated

Clear
Clear
84 °F
Feels Like 91 °F
N
8
Wind Variable Wind from SSW
Gusts 13 mph

Today
High -- | Low -- °F
--% Chance of Precip.
Yesterday
High -- | Low -- °F
Precip. -- in
Pressure 30.03 in
Visibility 10.0 miles
Clouds Few 6000 ft
Few 25000 ft
Heat Index 91 °F
Dew Point 74 °F
Humidity 73%
Rainfall --
Snow Depth Not available.
6:42 AM 8:23 PM
Last Quarter, 37% visible
METAR KNIP 280153Z 15011KT 10SM FEW060 FEW250 31/23 A3004 RMK AO2 SLP169 T03110233
Pressure 30.03 in
Visibility 10.0 miles
Clouds Few 6000 ft
Few 25000 ft
Heat Index 91 °F
Dew Point 74 °F
Humidity 73%
Rainfall --
Snow Depth Not available.
6:42 AM 8:23 PM
Last Quarter, 37% visible
METAR KNIP 280153Z 15011KT 10SM FEW060 FEW250 31/23 A3004 RMK AO2 SLP169 T03110233

10-Day Weather Forecast

Almanac

Astronomy

Jul. 27, 2016 Rise Set
Actual Time
Civil Twilight
Nautical Twilight
Astronomical Twilight
Moon
Length of Visible Light
Length of Day
Tomorrow will be .
, % of the Moon is Illuminated

Today's Extremes

State Highs State Lows

Community

WunderPhotos

Upload Photos

1,928,012 photos uploaded!

WunderBlog® & News

Nearby

Air Quality

  Air Quality AQ Index Pollutant
Not available.

Snow Depth

Station Depth Elevation

Earthquake Activity

City Distance Mag. Time & Date
Minimum magnitude displayed is 2.5.

Coastal Water Temperatures

Place Temperature

Stations

Nearby Weather Stations

Station Location Temp. Windchill Dew Point Humidity Wind Precip. Elev Updated Type
                   

Watches & Warnings

There are currently no watches in effect.